Weather History for Plattsmouth, NE

Change the Weather History Date:

Monday, March 10, 2014

  Actual Average (KOFF) Record (KOFF)
Temperature  
Mean Temperature 57 °F -  
Max Temperature 75 °F 41 °F 75 °F (2014)
Min Temperature 40 °F 23 °F 1 °F (1998)
Degree Days  
Heating Degree Days 8    
Growing Degree Days 7 (Base 50)    
Moisture  
Dew Point 29 °F    
Average Humidity 36    
Maximum Humidity 58    
Minimum Humidity 18    
Precipitation  
Precipitation 0.01 in - - ()
Sea Level Pressure  
Sea Level Pressure 29.74 in    
Wind  
Wind Speed 8 mph (SW)    
Max Wind Speed 17 mph    
Max Gust Speed 21 mph    
Visibility 10 miles    
Events      
Averages and records for this station are not official NWS values.
T = Trace of Precipitation, MM = Missing Value Source: NWS Daily Summary

Daily Weather History Graph

Daily Weather History Graph

Search for Another Location

Airport:

Trip Planner

Search our weather history database for the weather conditions in past years. The results will help you decide how hot, cold, wet, or windy it might be!

Date:

Astronomy

Mar. 10, 2014 Rise Set
Actual Time 7:43 AM CDT 7:24 PM CDT
Civil Twilight 7:16 AM CDT 7:52 PM CDT
Nautical Twilight 6:44 AM CDT 8:24 PM CDT
Astronomical Twilight 6:12 AM CDT 8:56 PM CDT
Moon 2:07 PM CDT (3/10) 3:57 AM CDT (3/10)
Length of Visible Light 12h 36m
Length of Day
11h 41m
Waxing Gibbous, 70% of the Moon is Illuminated
Mar 10
Waxing Gibbous
Mar 16
Full
Mar 23
Last Quarter
Mar 30
New
Apr 7
First Quarter

Hourly Weather History & Observations

Time (CDT) Temp. Windchill Dew Point Humidity Pressure Visibility Wind Dir Wind Speed Gust Speed Precip Events Conditions
12:15 AM 55.6 °F - 27.3 °F 34% 29.81 in 10.0 mi SSW 17.3 mph - N/A   Clear
12:35 AM 54.7 °F - 27.3 °F 35% 29.81 in 10.0 mi SSW 15.0 mph - N/A   Clear
12:55 AM 54.1 °F - 27.3 °F 36% 29.81 in 10.0 mi SSW 15.0 mph 20.7 mph N/A   Clear
1:15 AM 53.8 °F - 27.3 °F 36% 29.80 in 10.0 mi SSW 13.8 mph - N/A   Clear
1:35 AM 52.7 °F - 27.3 °F 38% 29.80 in 10.0 mi SSW 10.4 mph - N/A   Clear
1:55 AM 52.2 °F - 27.1 °F 38% 29.80 in 10.0 mi SSW 10.4 mph - N/A   Clear
2:15 AM 51.1 °F - 27.0 °F 39% 29.80 in 10.0 mi SW 6.9 mph - N/A   Clear
2:35 AM 50.0 °F - 27.0 °F 41% 29.79 in 10.0 mi SSW 6.9 mph - N/A   Clear
2:55 AM 50.2 °F - 26.8 °F 40% 29.78 in 10.0 mi SSW 8.1 mph - N/A   Clear
3:15 AM 49.3 °F - 26.6 °F 41% 29.78 in 10.0 mi SSW 6.9 mph - N/A   Clear
3:35 AM 48.2 °F - 26.6 °F 43% 29.77 in 10.0 mi SW 9.2 mph - N/A   Clear
3:55 AM 47.7 °F - 26.6 °F 44% 29.77 in 10.0 mi SW 8.1 mph - N/A   Clear
4:15 AM 46.4 °F 42.9 °F 26.6 °F 46% 29.77 in 10.0 mi SW 6.9 mph - N/A   Clear
4:35 AM 46.8 °F - 26.6 °F 45% 29.76 in 10.0 mi SW 4.6 mph - N/A   Clear
4:55 AM 46.6 °F - 26.6 °F 46% 29.77 in 10.0 mi SW 3.5 mph - N/A   Clear
5:15 AM 46.4 °F 45.2 °F 26.4 °F 46% 29.77 in 10.0 mi SW 3.5 mph - N/A   Clear
5:35 AM 43.0 °F 39.5 °F 26.2 °F 52% 29.76 in 10.0 mi South 5.8 mph - N/A   Clear
5:55 AM 44.2 °F 40.3 °F 26.6 °F 50% 29.76 in 10.0 mi SSW 6.9 mph - N/A   Clear
6:15 AM 44.1 °F - 26.6 °F 50% 29.76 in 10.0 mi Calm Calm - N/A   Clear
6:35 AM 43.0 °F 41.3 °F 26.8 °F 53% 29.77 in 10.0 mi WNW 3.5 mph - N/A   Clear
6:55 AM 42.6 °F 38.4 °F 27.0 °F 54% 29.77 in 10.0 mi West 6.9 mph - N/A   Clear
7:15 AM 42.1 °F 38.4 °F 27.1 °F 55% 29.77 in 10.0 mi West 5.8 mph - N/A   Clear
7:35 AM 40.5 °F 37.3 °F 26.8 °F 58% 29.77 in 10.0 mi West 4.6 mph - N/A   Clear
7:55 AM 40.6 °F 37.5 °F 26.6 °F 57% 29.77 in 10.0 mi West 4.6 mph - N/A   Clear
8:15 AM 42.3 °F 39.4 °F 27.5 °F 56% 29.77 in 10.0 mi West 4.6 mph - N/A   Clear
8:35 AM 43.3 °F 39.9 °F 27.5 °F 54% 29.77 in 10.0 mi West 5.8 mph - N/A   Clear
8:55 AM 44.1 °F 40.8 °F 28.4 °F 54% 29.78 in 10.0 mi West 5.8 mph - N/A   Clear
9:15 AM 46.4 °F 42.9 °F 28.4 °F 50% 29.78 in 10.0 mi WNW 6.9 mph - N/A   Clear
9:35 AM 47.8 °F - 28.4 °F 47% 29.79 in 10.0 mi NW 10.4 mph - N/A   Clear
9:55 AM 49.3 °F - 28.2 °F 44% 29.79 in 10.0 mi NW 3.5 mph - N/A   Clear
10:20 AM 51.3 °F - 28.2 °F 41% 29.80 in 10.0 mi NW 8.1 mph - N/A   Clear
10:35 AM 52.9 °F - 28.4 °F 39% 29.79 in 10.0 mi NW 5.8 mph - N/A   Clear
10:55 AM 55.0 °F - 28.2 °F 36% 29.79 in 10.0 mi NW 5.8 mph - N/A   Clear
11:15 AM 57.4 °F - 27.5 °F 32% 29.79 in 10.0 mi NW 4.6 mph - N/A   Clear
11:35 AM 60.1 °F - 28.0 °F 30% 29.79 in 10.0 mi NNW 4.6 mph - N/A   Clear
11:55 AM 62.6 °F - 28.0 °F 27% 29.79 in 10.0 mi NW 5.8 mph - N/A   Clear
12:15 PM 64.4 °F - 28.4 °F 26% 29.79 in 10.0 mi NNW 4.6 mph - N/A   Clear
12:35 PM 66.4 °F - 28.4 °F 24% 29.79 in 10.0 mi Calm Calm - N/A   Clear
12:55 PM 67.6 °F - 28.9 °F 24% 29.79 in 10.0 mi NNW 4.6 mph - N/A   Clear
1:15 PM 68.9 °F - 29.1 °F 23% 29.78 in - Calm Calm - 0.01 in   Clear
1:35 PM 69.6 °F - 28.8 °F 22% 29.77 in 10.0 mi Calm Calm - 0.01 in   Clear
1:55 PM 70.2 °F - 29.1 °F 22% 29.76 in 10.0 mi WNW 3.5 mph - 0.01 in   Clear
2:15 PM 72.0 °F - 29.5 °F 21% 29.75 in 10.0 mi NW 4.6 mph - N/A   Clear
2:35 PM 72.3 °F - 29.1 °F 20% 29.74 in 10.0 mi Calm Calm - N/A   Clear
3:00 PM 73.2 °F - 29.1 °F 20% 29.72 in 10.0 mi WSW 3.5 mph - N/A   Clear
3:15 PM 74.7 °F - 29.1 °F 19% 29.72 in 10.0 mi WNW 3.5 mph - N/A   Clear
3:35 PM 74.5 °F - 28.4 °F 18% 29.71 in 10.0 mi Calm Calm - N/A   Clear
3:55 PM 74.7 °F - 28.4 °F 18% 29.70 in 10.0 mi Calm Calm - N/A   Clear
4:15 PM 73.9 °F - 28.2 °F 18% 29.70 in 10.0 mi Calm Calm - N/A   Clear
4:35 PM 74.1 °F - 28.0 °F 18% 29.70 in 10.0 mi Calm Calm - N/A   Clear
4:55 PM 74.3 °F - 27.9 °F 18% 29.69 in 10.0 mi Calm Calm - N/A   Clear
5:15 PM 74.5 °F - 28.0 °F 18% 29.69 in 10.0 mi Calm Calm - N/A   Clear
5:35 PM 74.5 °F - 28.2 °F 18% 29.68 in 10.0 mi Calm Calm - N/A   Clear
5:55 PM 74.3 °F - 28.4 °F 18% 29.67 in 10.0 mi ESE 3.5 mph - N/A   Clear
6:15 PM 73.0 °F - 29.3 °F 20% 29.67 in 10.0 mi SE 4.6 mph - N/A   Clear
6:35 PM 69.8 °F - 29.3 °F 22% 29.67 in 10.0 mi SE 3.5 mph - N/A   Clear
6:55 PM 68.9 °F - 29.3 °F 23% 29.68 in 10.0 mi SSE 4.6 mph - N/A   Clear
7:15 PM 66.6 °F - 30.6 °F 26% 29.67 in 10.0 mi SSE 6.9 mph - N/A   Clear
7:35 PM 63.5 °F - 31.1 °F 30% 29.67 in 10.0 mi SE 6.9 mph - N/A   Clear
7:55 PM 61.3 °F - 31.5 °F 32% 29.67 in 10.0 mi SSE 8.1 mph - N/A   Clear
8:15 PM 60.1 °F - 32.0 °F 35% 29.66 in 10.0 mi SSE 8.1 mph - N/A   Clear
8:35 PM 60.4 °F - 32.5 °F 35% 29.67 in 10.0 mi SSE 9.2 mph - N/A   Clear
8:55 PM 58.8 °F - 33.3 °F 38% 29.67 in 10.0 mi SSE 9.2 mph - N/A   Clear
9:15 PM 58.6 °F - 34.3 °F 40% 29.66 in 10.0 mi SSE 9.2 mph - N/A   Clear
9:35 PM 57.7 °F - 34.7 °F 42% 29.65 in 10.0 mi SSE 10.4 mph - N/A   Clear
9:55 PM 57.7 °F - 34.9 °F 42% 29.65 in 10.0 mi SSE 9.2 mph - N/A   Clear
10:15 PM 58.1 °F - 34.7 °F 41% 29.64 in 10.0 mi SSE 10.4 mph - N/A   Clear
10:35 PM 56.8 °F - 34.7 °F 43% 29.64 in 10.0 mi SSE 10.4 mph - N/A   Clear
10:55 PM 56.1 °F - 34.9 °F 45% 29.63 in 10.0 mi SSE 10.4 mph - N/A   Clear
11:15 PM 55.8 °F - 34.9 °F 45% 29.62 in 10.0 mi SSE 10.4 mph - N/A   Clear
11:35 PM 56.1 °F - 34.7 °F 45% 29.61 in 10.0 mi SSE 10.4 mph - N/A   Clear
11:55 PM 52.9 °F - 34.5 °F 50% 29.60 in 10.0 mi SE 8.1 mph - N/A   Clear